Terminal Aerodrome Forecast
Issued by NWS Corpus Christi, TX

Home | Current Version | Previous Version | Text Only | Print | Product List | Glossary On
Versions: 1 2 3 4 5 6 7 8 9 10 11 12 13
000
FTUS44 KCRP 291740
TAFVCT
TAF
KVCT 291740Z 2918/3018 16010KT P6SM SCT035
     FM300200 13007KT P6SM FEW015
     FM300800 VRB03KT 3SM BR SCT008
      TEMPO 3010/3013 1/2SM FG BKN015
     FM301600 18007KT P6SM BKN025=

USA.gov is the U.S. government's official web portal to all federal, state and local government web resources and services.